Portada
METAR-TAF:

METAR-TAF

Aeroports :

Kasumigaura, Japó

latitud: 36-02N, longitud: 140-12E, altitud: 26 m

Observació

L'informe es va fer fa 4 hores i 0 minuts, a les 23:45 UTC
Vent 2 kt amb direcció variable
Temperatura 6°C
Humitat 61%
Pressió 1028 hPa
Visibilitat 10 km o més
Núvols disperses a una alçada de 5000 ft

METAR: RJAK 282345Z VRB02KT 9999 SCT050 06/M01 Q1028 RMK 4SC050 A3037

Hora: 12:45 (03:45 UTC)


TAF: manca

Observacions i pronòstics meteorològics de més de 4000 aeroports (METAR i TAF).

Les estacions disponibles són els punts grocs i vermells al mapa.

Posi el ratolí al punt desitjat per veure el nom de l'estació.

Feu clic per veure les observacions i els pronòstics meteorològics.

Per canviar el mapa: feu clic els botons verds amb una creu de color negre per apropar; al botó verd amb un guió per allunyar la imatge; o en les fletxes verdes per a mapes adjacents.


METAR-TAF: